createdAt,value
2022-10-19T00:00:47.641Z,84.60
2022-10-19T00:03:23.384Z,84.70
2022-10-19T00:05:58.532Z,84.80
2022-10-19T00:08:33.474Z,84.90
2022-10-19T00:11:09.001Z,84.80
2022-10-19T00:13:44.130Z,84.70
2022-10-19T00:16:20.292Z,84.70
2022-10-19T00:19:01.080Z,84.60
2022-10-19T00:21:36.483Z,84.80
2022-10-19T00:24:11.666Z,84.80
2022-10-19T00:26:46.708Z,84.80
2022-10-19T00:29:22.193Z,85.00
2022-10-19T00:31:57.039Z,85.10
2022-10-19T00:34:31.922Z,85.10
2022-10-19T00:37:06.893Z,85.40
2022-10-19T00:39:41.853Z,85.60
2022-10-19T00:42:16.743Z,85.70
2022-10-19T00:44:51.630Z,85.90
2022-10-19T00:47:26.978Z,86.00
2022-10-19T00:50:02.268Z,86.10
2022-10-19T00:52:37.401Z,86.20
2022-10-19T00:55:12.956Z,86.10
2022-10-19T00:57:48.072Z,86.00
2022-10-19T01:00:23.013Z,85.70
2022-10-19T01:02:58.954Z,85.60
2022-10-19T01:05:35.345Z,85.50
2022-10-19T01:08:11.601Z,85.30
2022-10-19T01:11:07.666Z,85.00
2022-10-19T01:14:07.162Z,84.90
2022-10-19T01:17:00.307Z,84.70
2022-10-19T01:20:23.361Z,84.60
2022-10-19T01:23:25.316Z,84.40
2022-10-19T01:26:34.095Z,84.40
2022-10-19T01:29:18.746Z,84.40
2022-10-19T01:32:34.501Z,84.50
2022-10-19T01:35:47.142Z,84.50
2022-10-19T01:38:57.635Z,84.50
2022-10-19T01:41:47.954Z,84.60
2022-10-19T01:44:35.836Z,84.50
2022-10-19T01:47:28.149Z,84.40
2022-10-19T01:50:13.719Z,84.40
2022-10-19T01:52:50.023Z,84.30
2022-10-19T01:55:27.531Z,84.20
2022-10-19T01:58:09.544Z,84.00
2022-10-19T02:00:48.730Z,84.00
2022-10-19T02:03:25.254Z,84.00
2022-10-19T02:06:00.566Z,83.70
2022-10-19T02:08:43.900Z,83.70
2022-10-19T02:11:21.752Z,83.50
2022-10-19T02:14:10.162Z,83.50
2022-10-19T02:17:02.820Z,83.70
2022-10-19T02:19:37.759Z,83.80
2022-10-19T02:22:13.534Z,83.70
2022-10-19T02:24:48.722Z,83.80
2022-10-19T02:27:23.868Z,84.00
2022-10-19T02:29:58.856Z,84.10
2022-10-19T02:32:34.080Z,84.20
2022-10-19T02:35:10.903Z,84.30
2022-10-19T02:37:46.078Z,84.50
2022-10-19T02:40:22.052Z,84.50
2022-10-19T02:43:04.390Z,84.70
2022-10-19T02:45:48.551Z,84.70
2022-10-19T02:48:26.235Z,84.60
2022-10-19T02:51:01.276Z,84.40
2022-10-19T02:53:36.203Z,84.30
2022-10-19T02:56:11.161Z,84.40
2022-10-19T02:58:46.039Z,84.60
2022-10-19T03:01:21.343Z,84.60
2022-10-19T03:03:56.292Z,84.60
2022-10-19T03:06:31.241Z,84.70
2022-10-19T03:09:06.525Z,84.70
2022-10-19T03:11:41.505Z,84.80
2022-10-19T03:14:16.431Z,84.80
2022-10-19T03:16:51.307Z,84.80
2022-10-19T03:19:26.318Z,84.80
2022-10-19T03:22:01.635Z,84.90
2022-10-19T03:24:36.465Z,85.00
2022-10-19T03:27:11.309Z,85.10
2022-10-19T03:29:46.226Z,85.20
2022-10-19T03:32:21.713Z,85.20
2022-10-19T03:34:56.595Z,85.20
2022-10-19T03:37:31.648Z,85.10
2022-10-19T03:40:07.617Z,85.10
2022-10-19T03:42:42.553Z,85.20
2022-10-19T03:45:17.545Z,85.20
2022-10-19T03:47:52.542Z,85.10
2022-10-19T03:50:27.416Z,85.10
2022-10-19T03:55:38.102Z,85.40
2022-10-19T03:58:12.946Z,85.20
2022-10-19T04:00:47.872Z,85.30
2022-10-19T04:03:22.952Z,85.30
2022-10-19T04:06:10.655Z,85.30
2022-10-19T04:08:49.964Z,85.30
2022-10-19T04:11:28.741Z,85.30
2022-10-19T04:14:04.376Z,85.30
2022-10-19T04:16:43.961Z,85.60
2022-10-19T04:19:18.892Z,85.60
2022-10-19T04:21:53.765Z,85.70
2022-10-19T04:24:29.169Z,85.70
2022-10-19T04:27:04.173Z,85.60
2022-10-19T04:29:39.070Z,85.60
2022-10-19T04:32:14.288Z,85.60
2022-10-19T04:34:49.150Z,85.60
2022-10-19T04:37:24.047Z,85.70
2022-10-19T04:39:58.905Z,85.70
2022-10-19T04:42:34.135Z,85.80
2022-10-19T04:45:09.737Z,85.90
2022-10-19T04:47:44.673Z,85.90
2022-10-19T04:50:19.580Z,86.00
2022-10-19T04:52:54.425Z,86.20
2022-10-19T04:55:29.315Z,86.10
2022-10-19T04:58:04.193Z,86.10
2022-10-19T05:00:39.678Z,86.10
2022-10-19T05:03:14.866Z,86.20
2022-10-19T05:05:49.871Z,86.30
2022-10-19T05:08:24.970Z,86.30
2022-10-19T05:11:15.310Z,86.30
2022-10-19T05:13:50.863Z,86.30
2022-10-19T05:16:26.210Z,86.40
2022-10-19T05:19:01.645Z,86.30
2022-10-19T05:21:36.605Z,86.40
2022-10-19T05:24:13.394Z,86.40
2022-10-19T05:26:48.387Z,86.60
2022-10-19T05:29:24.422Z,86.80
2022-10-19T05:31:59.579Z,87.00
2022-10-19T05:34:34.512Z,87.20
2022-10-19T05:37:09.435Z,87.20
2022-10-19T05:39:44.376Z,87.30
2022-10-19T05:42:19.346Z,87.30
2022-10-19T05:44:54.270Z,87.30
2022-10-19T05:47:31.023Z,87.30
2022-10-19T05:50:06.606Z,87.30
2022-10-19T05:52:41.470Z,87.20
2022-10-19T05:55:16.455Z,87.10
2022-10-19T05:57:51.394Z,87.10
2022-10-19T06:00:26.391Z,87.10
2022-10-19T06:03:01.439Z,86.90
2022-10-19T06:05:37.296Z,86.70
2022-10-19T06:08:12.199Z,86.60
2022-10-19T06:10:47.523Z,86.90
2022-10-19T06:13:22.436Z,86.40
2022-10-19T06:15:57.378Z,86.30
2022-10-19T06:18:32.362Z,86.40
2022-10-19T06:21:11.952Z,86.30
2022-10-19T06:23:52.127Z,86.30
2022-10-19T06:26:27.979Z,86.20
2022-10-19T06:29:04.389Z,86.20
2022-10-19T06:31:39.301Z,86.00
2022-10-19T06:34:14.217Z,85.80
2022-10-19T06:36:49.251Z,85.70
2022-10-19T06:39:24.178Z,85.50
2022-10-19T06:41:59.054Z,85.40
2022-10-19T06:44:33.996Z,85.30
2022-10-19T06:47:08.964Z,85.30
2022-10-19T06:49:44.427Z,85.00
2022-10-19T06:52:19.288Z,84.70
2022-10-19T06:54:54.285Z,84.50
2022-10-19T06:57:29.274Z,84.40
2022-10-19T07:00:06.666Z,84.20
2022-10-19T07:02:41.670Z,83.90
2022-10-19T07:05:16.551Z,83.70
2022-10-19T07:07:51.583Z,83.30
2022-10-19T07:10:26.582Z,83.00
2022-10-19T07:13:01.500Z,82.80
2022-10-19T07:15:36.412Z,82.50
2022-10-19T07:18:11.433Z,82.30
2022-10-19T07:20:58.746Z,81.90
2022-10-19T07:23:36.096Z,81.20
2022-10-19T07:26:26.500Z,80.30
2022-10-19T07:29:01.524Z,79.80
2022-10-19T07:31:36.600Z,79.10
2022-10-19T07:34:14.166Z,78.70
2022-10-19T07:36:49.157Z,78.80
2022-10-19T07:39:24.285Z,79.00
2022-10-19T07:41:59.189Z,79.20
2022-10-19T07:44:34.154Z,79.10
2022-10-19T07:47:09.144Z,79.00
2022-10-19T07:49:44.135Z,79.30
2022-10-19T07:52:18.993Z,79.40
2022-10-19T07:54:55.324Z,79.30
2022-10-19T07:57:30.193Z,79.30
2022-10-19T08:00:05.962Z,79.50
2022-10-19T08:03:00.084Z,79.70
2022-10-19T08:05:42.091Z,80.00
2022-10-19T08:08:16.981Z,80.10
2022-10-19T08:10:51.999Z,79.90
2022-10-19T08:13:26.985Z,79.40
2022-10-19T08:16:02.012Z,78.60
2022-10-19T08:18:36.901Z,77.70
2022-10-19T08:21:11.889Z,76.70
2022-10-19T08:23:46.898Z,74.80
2022-10-19T08:26:22.106Z,72.00
2022-10-19T08:29:08.990Z,70.30
2022-10-19T08:31:45.973Z,68.60
2022-10-19T08:34:20.906Z,67.20
2022-10-19T08:36:55.784Z,64.30
2022-10-19T08:39:31.030Z,63.80
2022-10-19T08:42:24.856Z,63.40
2022-10-19T08:45:14.247Z,63.10
2022-10-19T08:48:27.989Z,63.00
2022-10-19T08:51:05.682Z,62.70
2022-10-19T08:53:43.605Z,61.20
2022-10-19T08:56:51.450Z,61.50
2022-10-19T09:00:19.071Z,61.20
2022-10-19T09:03:31.961Z,60.80
2022-10-19T09:06:23.150Z,60.40
2022-10-19T09:08:59.261Z,59.50
2022-10-19T09:11:42.607Z,59.10
2022-10-19T09:14:32.169Z,59.00
2022-10-19T09:17:14.499Z,58.50
2022-10-19T09:19:49.449Z,58.10
2022-10-19T09:22:32.860Z,57.50
2022-10-19T09:25:15.147Z,56.70
2022-10-19T09:28:29.207Z,55.30
2022-10-19T09:31:21.695Z,54.20
2022-10-19T09:34:05.583Z,53.80
2022-10-19T09:36:51.646Z,53.20
2022-10-19T09:39:29.865Z,52.60
2022-10-19T09:42:23.985Z,50.10
2022-10-19T09:45:01.687Z,49.00
2022-10-19T09:47:39.159Z,48.60
2022-10-19T09:50:22.658Z,48.10
2022-10-19T09:53:04.913Z,48.10
2022-10-19T09:55:43.380Z,47.70
2022-10-19T09:58:19.977Z,47.90
2022-10-19T10:00:57.699Z,48.00
2022-10-19T10:03:43.537Z,47.30
2022-10-19T10:06:21.230Z,46.90
2022-10-19T10:08:58.777Z,46.30
2022-10-19T10:11:38.132Z,45.90
2022-10-19T10:14:25.032Z,45.10
2022-10-19T10:17:16.814Z,45.10
2022-10-19T10:19:57.494Z,44.90
2022-10-19T10:22:37.570Z,45.00
2022-10-19T10:25:18.560Z,45.00
2022-10-19T10:28:19.124Z,44.90
2022-10-19T10:31:03.756Z,44.70
2022-10-19T10:33:46.258Z,44.60
2022-10-19T10:36:26.725Z,44.60
2022-10-19T10:39:07.389Z,44.90
2022-10-19T10:41:44.979Z,44.90
2022-10-19T10:44:26.474Z,45.20
2022-10-19T10:47:05.876Z,45.60
2022-10-19T10:49:42.627Z,45.50
2022-10-19T10:52:19.623Z,45.30
2022-10-19T10:55:01.906Z,45.40
2022-10-19T10:57:45.500Z,44.70
2022-10-19T11:00:24.035Z,44.00
2022-10-19T11:03:25.369Z,43.80
2022-10-19T11:06:02.709Z,43.20
2022-10-19T11:09:09.121Z,42.60
2022-10-19T11:11:47.681Z,42.30
2022-10-19T11:14:55.633Z,42.10
2022-10-19T11:17:34.436Z,42.00
2022-10-19T11:20:16.769Z,41.60
2022-10-19T11:23:10.699Z,41.50
2022-10-19T11:26:10.883Z,41.20
2022-10-19T11:29:00.571Z,41.00
2022-10-19T11:31:55.933Z,40.60
2022-10-19T11:34:56.217Z,40.70
2022-10-19T11:37:49.796Z,40.70
2022-10-19T11:40:54.280Z,40.90
2022-10-19T11:44:06.361Z,40.90
2022-10-19T11:47:21.897Z,40.40
2022-10-19T11:53:18.019Z,40.20
2022-10-19T11:56:39.336Z,40.30
2022-10-19T12:00:03.977Z,40.20
2022-10-19T12:03:52.478Z,40.20
2022-10-19T12:06:47.864Z,40.00
2022-10-19T12:09:56.920Z,40.10
2022-10-19T12:12:44.035Z,40.20
2022-10-19T12:15:29.971Z,40.10
2022-10-19T12:18:36.081Z,40.30
2022-10-19T12:21:34.319Z,40.00
2022-10-19T12:24:25.330Z,39.50
2022-10-19T12:27:01.336Z,39.00
2022-10-19T12:29:41.326Z,39.00
2022-10-19T12:32:21.758Z,38.90
2022-10-19T12:35:40.573Z,39.00
2022-10-19T12:38:45.942Z,39.00
2022-10-19T12:41:31.422Z,39.10
2022-10-19T12:44:57.753Z,39.20
2022-10-19T12:47:34.269Z,38.90
2022-10-19T12:50:09.538Z,38.40
2022-10-19T12:52:49.471Z,38.40
2022-10-19T12:55:30.409Z,37.60
2022-10-19T12:58:21.708Z,37.30
2022-10-19T13:01:03.528Z,36.90
2022-10-19T13:03:42.489Z,35.30
2022-10-19T13:06:23.461Z,36.00
2022-10-19T13:09:06.183Z,35.50
2022-10-19T13:12:25.870Z,35.40
2022-10-19T13:15:04.390Z,35.90
2022-10-19T13:17:46.364Z,36.30
2022-10-19T13:20:21.183Z,36.00
2022-10-19T13:23:04.860Z,35.40
2022-10-19T13:25:40.944Z,35.30
2022-10-19T13:28:15.706Z,35.10
2022-10-19T13:30:50.469Z,34.60
2022-10-19T13:33:42.836Z,35.60
2022-10-19T13:36:19.773Z,35.80
2022-10-19T13:39:00.388Z,35.90
2022-10-19T13:41:38.242Z,34.40
2022-10-19T13:44:13.985Z,35.10
2022-10-19T13:47:12.189Z,34.30
2022-10-19T13:50:15.262Z,34.00
2022-10-19T13:53:24.334Z,34.10
2022-10-19T13:56:30.107Z,34.70
2022-10-19T13:59:21.041Z,35.00
2022-10-19T14:02:56.229Z,34.50
2022-10-19T14:06:01.681Z,34.50
2022-10-19T14:09:01.426Z,34.10
2022-10-19T14:11:45.779Z,34.80
2022-10-19T14:14:24.971Z,33.90
2022-10-19T14:17:04.409Z,32.70
2022-10-19T14:19:59.894Z,33.70
2022-10-19T14:22:36.202Z,33.70
2022-10-19T14:25:23.749Z,33.00
2022-10-19T14:28:06.166Z,32.60
2022-10-19T14:30:41.263Z,33.80
2022-10-19T14:33:17.860Z,33.50
2022-10-19T14:35:54.336Z,32.60
2022-10-19T14:38:38.861Z,32.30
2022-10-19T14:41:36.171Z,33.50
2022-10-19T14:44:41.676Z,33.50
2022-10-19T14:47:27.838Z,34.20
2022-10-19T14:50:03.804Z,34.20
2022-10-19T14:52:40.572Z,33.60
2022-10-19T14:55:18.275Z,33.90
2022-10-19T14:57:54.180Z,34.00
2022-10-19T15:00:33.360Z,33.80
2022-10-19T15:03:12.664Z,34.40
2022-10-19T15:05:49.698Z,34.90
2022-10-19T15:08:47.700Z,35.00
2022-10-19T15:11:30.562Z,34.60
2022-10-19T15:14:14.373Z,35.00
2022-10-19T15:16:49.193Z,34.50
2022-10-19T15:19:28.781Z,34.00
2022-10-19T15:22:16.802Z,34.70
2022-10-19T15:25:01.708Z,35.10
2022-10-19T15:27:45.460Z,35.20
2022-10-19T15:30:29.208Z,35.60
2022-10-19T15:33:04.264Z,35.40
2022-10-19T15:35:42.841Z,35.20
2022-10-19T15:38:26.296Z,35.50
2022-10-19T15:41:03.993Z,35.30
2022-10-19T15:43:46.297Z,35.70
2022-10-19T15:46:24.994Z,35.80
2022-10-19T15:49:35.162Z,35.90
2022-10-19T15:52:20.314Z,36.40
2022-10-19T15:54:57.909Z,36.30
2022-10-19T15:57:38.585Z,36.40
2022-10-19T16:00:18.140Z,36.30
2022-10-19T16:02:53.065Z,36.80
2022-10-19T16:05:28.824Z,37.00
2022-10-19T16:08:07.826Z,37.00
2022-10-19T16:10:45.009Z,37.30
2022-10-19T16:13:19.902Z,37.50
2022-10-19T16:16:10.480Z,37.90
2022-10-19T16:18:46.616Z,38.10
2022-10-19T16:21:25.510Z,38.30
2022-10-19T16:24:00.848Z,38.40
2022-10-19T16:26:35.840Z,38.60
2022-10-19T16:29:10.789Z,38.80
2022-10-19T16:31:45.701Z,38.90
2022-10-19T16:34:20.651Z,39.00
2022-10-19T16:36:55.635Z,39.10
2022-10-19T16:39:30.626Z,39.30
2022-10-19T16:42:05.534Z,39.50
2022-10-19T16:44:40.555Z,39.60
2022-10-19T16:47:16.960Z,39.50
2022-10-19T16:50:00.619Z,39.80
2022-10-19T16:52:35.628Z,40.20
2022-10-19T16:55:11.139Z,40.40
2022-10-19T16:57:46.057Z,40.50
2022-10-19T17:00:21.448Z,40.70
2022-10-19T17:02:56.351Z,40.80
2022-10-19T17:05:31.294Z,40.90
2022-10-19T17:08:06.803Z,41.00
2022-10-19T17:10:41.756Z,41.00
2022-10-19T17:13:16.732Z,41.10
2022-10-19T17:15:52.641Z,41.30
2022-10-19T17:18:27.561Z,41.30
2022-10-19T17:21:10.190Z,41.50
2022-10-19T17:23:46.619Z,41.50
2022-10-19T17:26:38.683Z,41.60
2022-10-19T17:29:14.094Z,41.80
2022-10-19T17:31:49.805Z,42.00
2022-10-19T17:34:25.024Z,42.20
2022-10-19T17:37:00.147Z,42.50
2022-10-19T17:39:35.150Z,42.70
2022-10-19T17:42:10.730Z,43.00
2022-10-19T17:44:45.689Z,43.30
2022-10-19T17:47:21.087Z,43.60
2022-10-19T17:49:55.972Z,43.70
2022-10-19T17:52:30.910Z,43.90
2022-10-19T17:55:12.311Z,44.20
2022-10-19T17:57:47.617Z,44.30
2022-10-19T18:00:22.752Z,44.60
2022-10-19T18:02:57.847Z,44.80
2022-10-19T18:05:32.778Z,45.10
2022-10-19T18:08:07.687Z,45.40
2022-10-19T18:10:42.617Z,45.70
2022-10-19T18:13:17.525Z,45.90
2022-10-19T18:15:52.606Z,46.20
2022-10-19T18:18:30.436Z,46.40
2022-10-19T18:21:14.407Z,46.70
2022-10-19T18:23:49.330Z,47.00
2022-10-19T18:26:27.403Z,47.50
2022-10-19T18:29:10.587Z,47.90
2022-10-19T18:31:51.166Z,48.20
2022-10-19T18:34:26.941Z,48.40
2022-10-19T18:37:02.084Z,48.80
2022-10-19T18:39:37.164Z,49.10
2022-10-19T18:42:12.758Z,49.70
2022-10-19T18:44:47.756Z,50.10
2022-10-19T18:47:22.692Z,50.70
2022-10-19T18:49:57.672Z,51.00
2022-10-19T18:52:36.108Z,51.80
2022-10-19T18:55:11.287Z,52.30
2022-10-19T18:57:46.228Z,52.60
2022-10-19T19:00:21.169Z,53.30
2022-10-19T19:02:56.138Z,53.80
2022-10-19T19:05:33.255Z,54.00
2022-10-19T19:08:08.181Z,54.30
2022-10-19T19:10:46.175Z,54.90
2022-10-19T19:13:21.365Z,55.20
2022-10-19T19:15:58.618Z,55.60
2022-10-19T19:18:34.225Z,55.90
2022-10-19T19:21:20.740Z,56.40
2022-10-19T19:23:58.918Z,56.90
2022-10-19T19:26:39.272Z,57.70
2022-10-19T19:29:14.723Z,58.30
2022-10-19T19:31:50.499Z,58.70
2022-10-19T19:34:25.538Z,59.40
2022-10-19T19:37:00.628Z,59.80
2022-10-19T19:39:35.673Z,60.50
2022-10-19T19:42:11.113Z,61.00
2022-10-19T19:44:46.101Z,61.10
2022-10-19T19:47:21.090Z,61.70
2022-10-19T19:49:56.008Z,61.90
2022-10-19T19:52:31.533Z,62.10
2022-10-19T19:55:06.752Z,62.30
2022-10-19T19:57:41.684Z,62.40
2022-10-19T20:00:17.253Z,62.10
2022-10-19T20:02:56.777Z,61.80
2022-10-19T20:05:32.374Z,61.90
2022-10-19T20:08:08.486Z,62.30
2022-10-19T20:10:43.638Z,62.40
2022-10-19T20:13:18.734Z,62.70
2022-10-19T20:15:53.831Z,62.60
2022-10-19T20:18:29.631Z,62.70
2022-10-19T20:21:05.849Z,63.10
2022-10-19T20:23:43.723Z,63.10
2022-10-19T20:26:21.534Z,63.90
2022-10-19T20:28:57.232Z,64.30
2022-10-19T20:31:33.497Z,64.70
2022-10-19T20:34:13.811Z,65.00
2022-10-19T20:36:49.010Z,66.30
2022-10-19T20:39:23.886Z,66.90
2022-10-19T20:41:58.800Z,67.00
2022-10-19T20:44:33.726Z,67.20
2022-10-19T20:47:08.642Z,67.80
2022-10-19T20:49:43.669Z,68.40
2022-10-19T20:52:18.540Z,68.70
2022-10-19T20:54:53.521Z,68.90
2022-10-19T20:57:28.570Z,69.00
2022-10-19T21:00:04.984Z,69.30
2022-10-19T21:02:39.924Z,69.50
2022-10-19T21:05:15.025Z,70.20
2022-10-19T21:07:49.897Z,71.00
2022-10-19T21:10:24.872Z,71.30
2022-10-19T21:12:59.746Z,71.70
2022-10-19T21:15:34.653Z,71.70
2022-10-19T21:18:09.529Z,71.80
2022-10-19T21:20:44.485Z,72.00
2022-10-19T21:23:19.449Z,72.20
2022-10-19T21:25:55.422Z,73.10
2022-10-19T21:28:30.262Z,73.30
2022-10-19T21:31:07.904Z,73.70
2022-10-19T21:33:43.855Z,74.00
2022-10-19T21:36:21.045Z,74.00
2022-10-19T21:38:56.299Z,74.50
2022-10-19T21:41:32.362Z,74.90
2022-10-19T21:44:08.056Z,74.70
2022-10-19T21:46:43.588Z,74.90
2022-10-19T21:49:18.993Z,74.70
2022-10-19T21:51:55.081Z,74.70
2022-10-19T21:54:30.400Z,74.80
2022-10-19T21:57:05.353Z,74.60
2022-10-19T21:59:40.256Z,74.80
2022-10-19T22:02:15.188Z,74.90
2022-10-19T22:04:50.065Z,74.80
2022-10-19T22:07:25.018Z,75.00
2022-10-19T22:09:59.952Z,75.00
2022-10-19T22:12:35.146Z,75.00
2022-10-19T22:15:11.089Z,75.10
2022-10-19T22:17:45.967Z,75.20
2022-10-19T22:20:20.961Z,75.70
2022-10-19T22:22:55.837Z,75.40
2022-10-19T22:25:32.701Z,75.50
2022-10-19T22:28:07.715Z,75.70
2022-10-19T22:30:44.962Z,75.70
2022-10-19T22:33:19.915Z,75.80
2022-10-19T22:35:57.595Z,75.80
2022-10-19T22:38:32.699Z,75.80
2022-10-19T22:41:07.996Z,75.80
2022-10-19T22:43:43.888Z,75.80
2022-10-19T22:46:18.766Z,75.80
2022-10-19T22:48:53.764Z,76.00
2022-10-19T22:51:28.829Z,76.30
2022-10-19T22:54:04.031Z,76.40
2022-10-19T22:56:39.357Z,76.50
2022-10-19T22:59:14.219Z,76.60
2022-10-19T23:01:49.209Z,76.70
2022-10-19T23:04:24.239Z,76.80
2022-10-19T23:06:59.157Z,76.90
2022-10-19T23:09:34.130Z,77.20
2022-10-19T23:12:08.972Z,77.30
2022-10-19T23:14:43.959Z,77.10
2022-10-19T23:17:18.857Z,77.30
2022-10-19T23:19:53.814Z,77.30
2022-10-19T23:22:28.755Z,77.20
2022-10-19T23:25:04.039Z,77.10
2022-10-19T23:27:39.262Z,77.20
2022-10-19T23:30:14.399Z,77.40
2022-10-19T23:32:49.308Z,77.40
2022-10-19T23:35:24.264Z,77.50
2022-10-19T23:37:59.112Z,77.30
2022-10-19T23:40:34.958Z,77.50
2022-10-19T23:43:10.474Z,77.50
2022-10-19T23:45:45.730Z,77.60
2022-10-19T23:48:20.772Z,77.80
2022-10-19T23:51:09.635Z,77.90
2022-10-19T23:53:47.522Z,77.90
2022-10-19T23:56:28.854Z,78.10
2022-10-19T23:59:07.211Z,78.10
